sensor_id;sensor_type;location;lat;lon;timestamp;P1;durP1;ratioP1;P2;durP2;ratioP2
68234;SDS011;55052;52.056;5.296;2023-02-21T00:01:36;33.45;;;16.67;;
68234;SDS011;55052;52.056;5.296;2023-02-21T00:04:22;33.80;;;17.70;;
68234;SDS011;55052;52.056;5.296;2023-02-21T00:07:07;31.05;;;16.15;;
68234;SDS011;55052;52.056;5.296;2023-02-21T00:09:52;34.28;;;16.88;;
68234;SDS011;55052;52.056;5.296;2023-02-21T00:12:38;39.70;;;17.35;;
68234;SDS011;55052;52.056;5.296;2023-02-21T00:15:23;36.65;;;18.73;;
68234;SDS011;55052;52.056;5.296;2023-02-21T00:18:09;31.25;;;17.58;;
68234;SDS011;55052;52.056;5.296;2023-02-21T00:20:54;38.17;;;17.88;;
68234;SDS011;55052;52.056;5.296;2023-02-21T00:23:40;36.15;;;17.30;;
68234;SDS011;55052;52.056;5.296;2023-02-21T00:26:25;39.70;;;17.40;;
68234;SDS011;55052;52.056;5.296;2023-02-21T00:29:11;36.50;;;16.75;;
68234;SDS011;55052;52.056;5.296;2023-02-21T00:31:56;34.63;;;15.70;;
68234;SDS011;55052;52.056;5.296;2023-02-21T00:34:42;38.38;;;16.20;;
68234;SDS011;55052;52.056;5.296;2023-02-21T00:37:27;34.92;;;15.50;;
68234;SDS011;55052;52.056;5.296;2023-02-21T00:40:13;33.47;;;15.75;;
68234;SDS011;55052;52.056;5.296;2023-02-21T00:42:59;33.88;;;16.48;;
68234;SDS011;55052;52.056;5.296;2023-02-21T00:45:45;34.95;;;15.95;;
68234;SDS011;55052;52.056;5.296;2023-02-21T00:48:31;37.78;;;16.25;;
68234;SDS011;55052;52.056;5.296;2023-02-21T00:51:16;32.47;;;15.90;;
68234;SDS011;55052;52.056;5.296;2023-02-21T00:54:02;38.45;;;15.40;;
68234;SDS011;55052;52.056;5.296;2023-02-21T00:56:47;33.47;;;16.05;;
68234;SDS011;55052;52.056;5.296;2023-02-21T00:59:32;42.55;;;16.80;;
68234;SDS011;55052;52.056;5.296;2023-02-21T01:02:18;35.42;;;17.13;;
68234;SDS011;55052;52.056;5.296;2023-02-21T01:05:03;42.92;;;16.90;;
68234;SDS011;55052;52.056;5.296;2023-02-21T01:07:49;40.38;;;17.42;;
68234;SDS011;55052;52.056;5.296;2023-02-21T01:10:34;35.85;;;16.75;;
68234;SDS011;55052;52.056;5.296;2023-02-21T01:13:20;35.83;;;16.48;;
68234;SDS011;55052;52.056;5.296;2023-02-21T01:16:06;36.97;;;16.90;;
68234;SDS011;55052;52.056;5.296;2023-02-21T01:18:51;37.40;;;16.75;;
68234;SDS011;55052;52.056;5.296;2023-02-21T01:21:37;35.03;;;16.50;;
68234;SDS011;55052;52.056;5.296;2023-02-21T01:24:22;40.63;;;18.38;;
68234;SDS011;55052;52.056;5.296;2023-02-21T01:27:07;42.97;;;18.15;;
68234;SDS011;55052;52.056;5.296;2023-02-21T01:29:53;47.47;;;18.80;;
68234;SDS011;55052;52.056;5.296;2023-02-21T01:32:38;36.88;;;18.17;;
68234;SDS011;55052;52.056;5.296;2023-02-21T01:35:23;41.08;;;18.90;;
68234;SDS011;55052;52.056;5.296;2023-02-21T01:38:09;44.53;;;18.60;;
68234;SDS011;55052;52.056;5.296;2023-02-21T01:40:54;44.10;;;18.98;;
68234;SDS011;55052;52.056;5.296;2023-02-21T01:43:59;41.90;;;17.17;;
68234;SDS011;55052;52.056;5.296;2023-02-21T01:46:49;36.42;;;17.83;;
68234;SDS011;55052;52.056;5.296;2023-02-21T01:49:35;40.95;;;18.77;;
68234;SDS011;55052;52.056;5.296;2023-02-21T01:52:24;38.97;;;18.52;;
68234;SDS011;55052;52.056;5.296;2023-02-21T01:55:10;39.90;;;19.33;;
68234;SDS011;55052;52.056;5.296;2023-02-21T01:57:55;43.25;;;18.65;;
68234;SDS011;55052;52.056;5.296;2023-02-21T02:00:42;41.38;;;18.92;;
68234;SDS011;55052;52.056;5.296;2023-02-21T02:03:28;40.67;;;18.52;;
68234;SDS011;55052;52.056;5.296;2023-02-21T02:06:15;48.75;;;18.25;;
68234;SDS011;55052;52.056;5.296;2023-02-21T02:09:17;47.03;;;19.92;;
68234;SDS011;55052;52.056;5.296;2023-02-21T02:25:27;46.90;;;21.63;;
68234;SDS011;55052;52.056;5.296;2023-02-21T02:31:37;46.53;;;20.50;;
68234;SDS011;55052;52.056;5.296;2023-02-21T02:37:22;46.55;;;20.60;;
68234;SDS011;55052;52.056;5.296;2023-02-21T02:43:11;51.38;;;22.13;;
68234;SDS011;55052;52.056;5.296;2023-02-21T02:48:37;49.97;;;21.35;;
68234;SDS011;55052;52.056;5.296;2023-02-21T02:51:10;49.17;;;21.65;;
68234;SDS011;55052;52.056;5.296;2023-02-21T02:53:39;53.97;;;20.73;;
68234;SDS011;55052;52.056;5.296;2023-02-21T02:56:10;47.63;;;21.33;;
68234;SDS011;55052;52.056;5.296;2023-02-21T02:58:41;50.40;;;21.23;;
68234;SDS011;55052;52.056;5.296;2023-02-21T03:15:07;48.22;;;21.40;;
68234;SDS011;55052;52.056;5.296;2023-02-21T03:17:41;53.80;;;21.75;;
68234;SDS011;55052;52.056;5.296;2023-02-21T03:20:11;53.20;;;21.92;;
68234;SDS011;55052;52.056;5.296;2023-02-21T03:22:41;55.63;;;23.38;;
68234;SDS011;55052;52.056;5.296;2023-02-21T03:25:09;52.88;;;22.23;;
68234;SDS011;55052;52.056;5.296;2023-02-21T03:27:38;49.63;;;21.85;;
68234;SDS011;55052;52.056;5.296;2023-02-21T03:30:07;53.08;;;22.30;;
68234;SDS011;55052;52.056;5.296;2023-02-21T03:32:36;55.47;;;23.33;;
68234;SDS011;55052;52.056;5.296;2023-02-21T03:35:08;52.58;;;22.63;;
68234;SDS011;55052;52.056;5.296;2023-02-21T03:37:36;53.33;;;24.42;;
68234;SDS011;55052;52.056;5.296;2023-02-21T03:40:16;54.25;;;22.65;;
68234;SDS011;55052;52.056;5.296;2023-02-21T03:42:45;52.92;;;22.95;;
68234;SDS011;55052;52.056;5.296;2023-02-21T03:45:12;56.58;;;23.10;;
68234;SDS011;55052;52.056;5.296;2023-02-21T03:47:38;64.03;;;24.02;;
68234;SDS011;55052;52.056;5.296;2023-02-21T03:50:05;60.13;;;26.00;;
68234;SDS011;55052;52.056;5.296;2023-02-21T03:52:32;49.53;;;25.40;;
68234;SDS011;55052;52.056;5.296;2023-02-21T03:54:59;51.90;;;22.40;;
68234;SDS011;55052;52.056;5.296;2023-02-21T03:57:26;48.63;;;22.60;;
68234;SDS011;55052;52.056;5.296;2023-02-21T03:59:53;59.40;;;25.52;;
68234;SDS011;55052;52.056;5.296;2023-02-21T04:02:20;56.28;;;24.27;;
68234;SDS011;55052;52.056;5.296;2023-02-21T04:04:47;54.50;;;24.65;;
68234;SDS011;55052;52.056;5.296;2023-02-21T04:07:14;55.47;;;24.73;;
68234;SDS011;55052;52.056;5.296;2023-02-21T04:09:43;52.70;;;24.17;;
68234;SDS011;55052;52.056;5.296;2023-02-21T04:12:09;56.58;;;24.50;;
68234;SDS011;55052;52.056;5.296;2023-02-21T04:14:36;53.58;;;24.30;;
68234;SDS011;55052;52.056;5.296;2023-02-21T04:17:03;56.13;;;23.48;;
68234;SDS011;55052;52.056;5.296;2023-02-21T04:19:30;58.30;;;23.73;;
68234;SDS011;55052;52.056;5.296;2023-02-21T04:21:56;57.30;;;23.45;;
68234;SDS011;55052;52.056;5.296;2023-02-21T04:24:23;56.10;;;23.88;;
68234;SDS011;55052;52.056;5.296;2023-02-21T04:26:50;54.47;;;23.27;;
68234;SDS011;55052;52.056;5.296;2023-02-21T04:29:17;55.78;;;23.38;;
68234;SDS011;55052;52.056;5.296;2023-02-21T04:31:44;61.80;;;24.80;;
68234;SDS011;55052;52.056;5.296;2023-02-21T04:34:11;60.28;;;24.52;;
68234;SDS011;55052;52.056;5.296;2023-02-21T04:36:38;63.65;;;24.60;;
68234;SDS011;55052;52.056;5.296;2023-02-21T04:39:05;58.22;;;23.75;;
68234;SDS011;55052;52.056;5.296;2023-02-21T04:41:33;60.05;;;25.15;;
68234;SDS011;55052;52.056;5.296;2023-02-21T04:44:00;57.03;;;23.08;;
68234;SDS011;55052;52.056;5.296;2023-02-21T04:46:27;59.05;;;24.05;;
68234;SDS011;55052;52.056;5.296;2023-02-21T04:48:53;60.28;;;25.38;;
68234;SDS011;55052;52.056;5.296;2023-02-21T04:51:21;59.72;;;24.60;;
68234;SDS011;55052;52.056;5.296;2023-02-21T04:53:49;59.90;;;24.23;;
68234;SDS011;55052;52.056;5.296;2023-02-21T04:56:18;56.97;;;25.10;;
68234;SDS011;55052;52.056;5.296;2023-02-21T04:58:48;60.78;;;24.10;;
68234;SDS011;55052;52.056;5.296;2023-02-21T05:01:16;60.25;;;24.77;;
68234;SDS011;55052;52.056;5.296;2023-02-21T05:03:44;62.20;;;24.83;;
68234;SDS011;55052;52.056;5.296;2023-02-21T05:06:21;61.13;;;25.55;;
68234;SDS011;55052;52.056;5.296;2023-02-21T05:08:50;65.50;;;25.80;;
68234;SDS011;55052;52.056;5.296;2023-02-21T05:11:17;64.70;;;26.10;;
68234;SDS011;55052;52.056;5.296;2023-02-21T05:13:45;61.30;;;25.50;;
68234;SDS011;55052;52.056;5.296;2023-02-21T05:16:12;67.95;;;24.83;;
68234;SDS011;55052;52.056;5.296;2023-02-21T05:18:43;62.70;;;25.55;;
68234;SDS011;55052;52.056;5.296;2023-02-21T05:21:11;68.50;;;26.15;;
68234;SDS011;55052;52.056;5.296;2023-02-21T05:23:39;65.78;;;25.83;;
68234;SDS011;55052;52.056;5.296;2023-02-21T05:26:12;71.22;;;26.45;;
68234;SDS011;55052;52.056;5.296;2023-02-21T05:28:39;66.22;;;25.27;;
68234;SDS011;55052;52.056;5.296;2023-02-21T05:31:06;68.30;;;25.73;;
68234;SDS011;55052;52.056;5.296;2023-02-21T05:33:34;68.43;;;25.65;;
68234;SDS011;55052;52.056;5.296;2023-02-21T05:36:00;70.28;;;26.23;;
68234;SDS011;55052;52.056;5.296;2023-02-21T05:38:27;65.70;;;27.02;;
68234;SDS011;55052;52.056;5.296;2023-02-21T05:40:54;68.57;;;26.17;;
68234;SDS011;55052;52.056;5.296;2023-02-21T05:43:21;64.07;;;24.48;;
68234;SDS011;55052;52.056;5.296;2023-02-21T05:45:48;64.95;;;25.20;;
68234;SDS011;55052;52.056;5.296;2023-02-21T05:48:14;63.85;;;25.02;;
68234;SDS011;55052;52.056;5.296;2023-02-21T05:50:41;71.63;;;26.25;;
68234;SDS011;55052;52.056;5.296;2023-02-21T05:53:10;68.15;;;25.63;;
68234;SDS011;55052;52.056;5.296;2023-02-21T05:55:36;67.15;;;26.38;;
68234;SDS011;55052;52.056;5.296;2023-02-21T05:58:03;68.63;;;25.55;;
68234;SDS011;55052;52.056;5.296;2023-02-21T06:00:32;72.28;;;27.15;;
68234;SDS011;55052;52.056;5.296;2023-02-21T06:02:59;68.78;;;25.92;;
68234;SDS011;55052;52.056;5.296;2023-02-21T06:05:29;71.63;;;27.25;;
68234;SDS011;55052;52.056;5.296;2023-02-21T06:07:57;66.07;;;27.10;;
68234;SDS011;55052;52.056;5.296;2023-02-21T06:10:24;74.05;;;26.15;;
68234;SDS011;55052;52.056;5.296;2023-02-21T06:12:51;68.30;;;26.35;;
68234;SDS011;55052;52.056;5.296;2023-02-21T06:15:18;75.68;;;26.08;;
68234;SDS011;55052;52.056;5.296;2023-02-21T06:17:45;72.85;;;27.02;;
68234;SDS011;55052;52.056;5.296;2023-02-21T06:20:13;76.20;;;26.48;;
68234;SDS011;55052;52.056;5.296;2023-02-21T06:22:42;71.53;;;27.02;;
68234;SDS011;55052;52.056;5.296;2023-02-21T06:25:09;73.82;;;26.80;;
68234;SDS011;55052;52.056;5.296;2023-02-21T06:27:36;72.03;;;27.48;;
68234;SDS011;55052;52.056;5.296;2023-02-21T06:30:03;72.82;;;28.80;;
68234;SDS011;55052;52.056;5.296;2023-02-21T06:32:31;77.57;;;27.70;;
68234;SDS011;55052;52.056;5.296;2023-02-21T06:34:58;85.60;;;31.02;;
68234;SDS011;55052;52.056;5.296;2023-02-21T06:37:24;80.47;;;28.60;;
68234;SDS011;55052;52.056;5.296;2023-02-21T06:39:51;77.07;;;28.02;;
68234;SDS011;55052;52.056;5.296;2023-02-21T06:42:18;83.45;;;29.02;;
68234;SDS011;55052;52.056;5.296;2023-02-21T06:44:45;86.63;;;29.58;;
68234;SDS011;55052;52.056;5.296;2023-02-21T06:47:14;77.75;;;29.20;;
68234;SDS011;55052;52.056;5.296;2023-02-21T06:49:41;82.32;;;28.92;;
68234;SDS011;55052;52.056;5.296;2023-02-21T06:52:08;87.55;;;30.30;;
68234;SDS011;55052;52.056;5.296;2023-02-21T06:54:36;91.10;;;30.40;;
68234;SDS011;55052;52.056;5.296;2023-02-21T06:57:03;82.00;;;30.52;;
68234;SDS011;55052;52.056;5.296;2023-02-21T06:59:30;88.82;;;29.48;;
68234;SDS011;55052;52.056;5.296;2023-02-21T07:02:00;85.80;;;28.88;;
68234;SDS011;55052;52.056;5.296;2023-02-21T07:04:29;98.93;;;32.92;;
68234;SDS011;55052;52.056;5.296;2023-02-21T07:06:56;83.57;;;30.60;;
68234;SDS011;55052;52.056;5.296;2023-02-21T07:09:22;91.45;;;31.48;;
68234;SDS011;55052;52.056;5.296;2023-02-21T07:11:49;83.50;;;31.65;;
68234;SDS011;55052;52.056;5.296;2023-02-21T07:14:16;87.65;;;29.67;;
68234;SDS011;55052;52.056;5.296;2023-02-21T07:16:43;86.80;;;30.77;;
68234;SDS011;55052;52.056;5.296;2023-02-21T07:19:10;79.63;;;29.95;;
68234;SDS011;55052;52.056;5.296;2023-02-21T07:21:41;93.95;;;30.17;;
68234;SDS011;55052;52.056;5.296;2023-02-21T07:24:08;90.80;;;32.50;;
68234;SDS011;55052;52.056;5.296;2023-02-21T07:26:35;93.20;;;31.55;;
68234;SDS011;55052;52.056;5.296;2023-02-21T07:29:03;95.65;;;32.03;;
68234;SDS011;55052;52.056;5.296;2023-02-21T07:31:31;95.88;;;30.98;;
68234;SDS011;55052;52.056;5.296;2023-02-21T07:33:59;91.53;;;31.50;;
68234;SDS011;55052;52.056;5.296;2023-02-21T07:36:25;96.22;;;30.95;;
68234;SDS011;55052;52.056;5.296;2023-02-21T07:38:52;95.45;;;31.60;;
68234;SDS011;55052;52.056;5.296;2023-02-21T07:41:19;95.00;;;31.55;;
68234;SDS011;55052;52.056;5.296;2023-02-21T07:43:46;91.00;;;32.40;;
68234;SDS011;55052;52.056;5.296;2023-02-21T07:46:13;87.30;;;31.73;;
68234;SDS011;55052;52.056;5.296;2023-02-21T07:48:42;95.20;;;29.10;;
68234;SDS011;55052;52.056;5.296;2023-02-21T07:51:09;84.10;;;29.42;;
68234;SDS011;55052;52.056;5.296;2023-02-21T07:53:35;97.55;;;31.05;;
68234;SDS011;55052;52.056;5.296;2023-02-21T07:56:03;98.47;;;30.23;;
68234;SDS011;55052;52.056;5.296;2023-02-21T07:58:30;89.82;;;29.60;;
68234;SDS011;55052;52.056;5.296;2023-02-21T08:00:57;90.85;;;31.40;;
68234;SDS011;55052;52.056;5.296;2023-02-21T08:03:24;82.35;;;28.83;;
68234;SDS011;55052;52.056;5.296;2023-02-21T08:05:51;82.45;;;29.05;;
68234;SDS011;55052;52.056;5.296;2023-02-21T08:08:18;85.05;;;28.77;;
68234;SDS011;55052;52.056;5.296;2023-02-21T08:10:44;81.88;;;28.48;;
68234;SDS011;55052;52.056;5.296;2023-02-21T08:13:11;77.80;;;27.33;;
68234;SDS011;55052;52.056;5.296;2023-02-21T08:15:38;72.20;;;27.30;;
68234;SDS011;55052;52.056;5.296;2023-02-21T08:18:05;80.53;;;27.55;;
68234;SDS011;55052;52.056;5.296;2023-02-21T08:20:31;77.00;;;26.50;;
68234;SDS011;55052;52.056;5.296;2023-02-21T08:22:58;77.13;;;27.30;;
68234;SDS011;55052;52.056;5.296;2023-02-21T08:25:25;74.88;;;27.30;;
68234;SDS011;55052;52.056;5.296;2023-02-21T08:27:52;83.85;;;28.20;;
68234;SDS011;55052;52.056;5.296;2023-02-21T08:30:20;75.57;;;27.02;;
68234;SDS011;55052;52.056;5.296;2023-02-21T08:32:47;75.60;;;27.42;;
68234;SDS011;55052;52.056;5.296;2023-02-21T08:35:16;66.88;;;24.58;;
68234;SDS011;55052;52.056;5.296;2023-02-21T08:37:45;71.93;;;25.35;;
68234;SDS011;55052;52.056;5.296;2023-02-21T08:40:13;76.55;;;26.83;;
68234;SDS011;55052;52.056;5.296;2023-02-21T08:42:41;68.30;;;24.92;;
68234;SDS011;55052;52.056;5.296;2023-02-21T08:45:09;78.05;;;27.13;;
68234;SDS011;55052;52.056;5.296;2023-02-21T08:47:41;67.85;;;25.38;;
68234;SDS011;55052;52.056;5.296;2023-02-21T08:50:08;73.32;;;25.77;;
68234;SDS011;55052;52.056;5.296;2023-02-21T08:52:35;76.85;;;26.83;;
68234;SDS011;55052;52.056;5.296;2023-02-21T08:55:02;69.68;;;26.30;;
68234;SDS011;55052;52.056;5.296;2023-02-21T08:57:29;74.18;;;25.13;;
68234;SDS011;55052;52.056;5.296;2023-02-21T08:59:55;68.88;;;24.83;;
68234;SDS011;55052;52.056;5.296;2023-02-21T09:02:23;68.60;;;25.23;;
68234;SDS011;55052;52.056;5.296;2023-02-21T09:04:51;71.40;;;26.23;;
68234;SDS011;55052;52.056;5.296;2023-02-21T09:07:19;72.35;;;25.90;;
68234;SDS011;55052;52.056;5.296;2023-02-21T09:09:46;67.85;;;24.58;;
68234;SDS011;55052;52.056;5.296;2023-02-21T09:12:13;63.47;;;23.77;;
68234;SDS011;55052;52.056;5.296;2023-02-21T09:14:41;62.25;;;23.92;;
68234;SDS011;55052;52.056;5.296;2023-02-21T09:17:09;69.28;;;24.70;;
68234;SDS011;55052;52.056;5.296;2023-02-21T09:19:38;61.50;;;23.75;;
68234;SDS011;55052;52.056;5.296;2023-02-21T09:22:06;62.80;;;23.25;;
68234;SDS011;55052;52.056;5.296;2023-02-21T09:24:33;61.90;;;22.45;;
68234;SDS011;55052;52.056;5.296;2023-02-21T09:27:00;65.13;;;21.92;;
68234;SDS011;55052;52.056;5.296;2023-02-21T09:32:10;67.28;;;22.77;;
68234;SDS011;55052;52.056;5.296;2023-02-21T09:34:37;64.20;;;23.45;;
68234;SDS011;55052;52.056;5.296;2023-02-21T09:37:05;65.07;;;23.02;;
68234;SDS011;55052;52.056;5.296;2023-02-21T09:39:32;67.15;;;24.45;;
68234;SDS011;55052;52.056;5.296;2023-02-21T09:41:59;63.25;;;22.88;;
68234;SDS011;55052;52.056;5.296;2023-02-21T09:44:26;64.50;;;22.77;;
68234;SDS011;55052;52.056;5.296;2023-02-21T09:46:55;67.07;;;24.38;;
68234;SDS011;55052;52.056;5.296;2023-02-21T09:49:40;71.93;;;26.73;;
68234;SDS011;55052;52.056;5.296;2023-02-21T09:52:42;71.18;;;24.48;;
68234;SDS011;55052;52.056;5.296;2023-02-21T09:55:07;67.47;;;23.20;;
68234;SDS011;55052;52.056;5.296;2023-02-21T09:57:46;70.32;;;25.33;;
68234;SDS011;55052;52.056;5.296;2023-02-21T10:00:47;71.60;;;25.52;;
68234;SDS011;55052;52.056;5.296;2023-02-21T10:06:16;63.55;;;22.80;;
68234;SDS011;55052;52.056;5.296;2023-02-21T10:08:53;68.70;;;22.85;;
68234;SDS011;55052;52.056;5.296;2023-02-21T10:17:09;68.03;;;21.58;;
68234;SDS011;55052;52.056;5.296;2023-02-21T10:19:45;66.97;;;22.40;;
68234;SDS011;55052;52.056;5.296;2023-02-21T10:22:26;69.47;;;23.00;;
68234;SDS011;55052;52.056;5.296;2023-02-21T10:24:56;72.97;;;22.90;;
68234;SDS011;55052;52.056;5.296;2023-02-21T10:27:25;65.25;;;22.52;;
68234;SDS011;55052;52.056;5.296;2023-02-21T10:30:03;71.47;;;23.52;;
68234;SDS011;55052;52.056;5.296;2023-02-21T10:32:35;65.57;;;23.17;;
68234;SDS011;55052;52.056;5.296;2023-02-21T10:35:03;71.05;;;23.10;;
68234;SDS011;55052;52.056;5.296;2023-02-21T10:42:48;77.75;;;25.77;;
68234;SDS011;55052;52.056;5.296;2023-02-21T10:45:19;74.05;;;24.50;;
68234;SDS011;55052;52.056;5.296;2023-02-21T10:47:55;76.20;;;25.77;;
68234;SDS011;55052;52.056;5.296;2023-02-21T10:53:05;78.13;;;26.58;;
68234;SDS011;55052;52.056;5.296;2023-02-21T10:55:33;68.85;;;24.77;;
68234;SDS011;55052;52.056;5.296;2023-02-21T10:58:07;75.32;;;25.05;;
68234;SDS011;55052;52.056;5.296;2023-02-21T11:00:37;70.97;;;24.80;;
68234;SDS011;55052;52.056;5.296;2023-02-21T11:05:48;74.63;;;27.05;;
68234;SDS011;55052;52.056;5.296;2023-02-21T11:08:16;84.32;;;26.95;;
68234;SDS011;55052;52.056;5.296;2023-02-21T11:11:07;85.07;;;28.52;;
68234;SDS011;55052;52.056;5.296;2023-02-21T11:13:36;82.18;;;27.75;;
68234;SDS011;55052;52.056;5.296;2023-02-21T11:16:08;76.18;;;25.58;;
68234;SDS011;55052;52.056;5.296;2023-02-21T11:18:43;82.35;;;28.42;;
68234;SDS011;55052;52.056;5.296;2023-02-21T11:23:37;72.80;;;25.33;;
68234;SDS011;55052;52.056;5.296;2023-02-21T11:26:28;75.50;;;26.00;;
68234;SDS011;55052;52.056;5.296;2023-02-21T11:29:10;78.00;;;26.10;;
68234;SDS011;55052;52.056;5.296;2023-02-21T11:31:41;78.00;;;26.35;;
68234;SDS011;55052;52.056;5.296;2023-02-21T11:34:09;74.25;;;27.15;;
68234;SDS011;55052;52.056;5.296;2023-02-21T11:39:18;77.60;;;25.00;;
68234;SDS011;55052;52.056;5.296;2023-02-21T11:41:53;72.50;;;24.52;;
68234;SDS011;55052;52.056;5.296;2023-02-21T11:44:30;74.43;;;26.48;;
68234;SDS011;55052;52.056;5.296;2023-02-21T11:47:10;72.53;;;25.15;;
68234;SDS011;55052;52.056;5.296;2023-02-21T11:52:45;75.90;;;25.20;;
68234;SDS011;55052;52.056;5.296;2023-02-21T11:58:48;75.85;;;26.15;;
68234;SDS011;55052;52.056;5.296;2023-02-21T12:01:26;75.55;;;24.98;;
68234;SDS011;55052;52.056;5.296;2023-02-21T12:04:12;65.85;;;22.25;;
68234;SDS011;55052;52.056;5.296;2023-02-21T12:07:22;60.80;;;21.90;;
68234;SDS011;55052;52.056;5.296;2023-02-21T12:30:32;43.85;;;16.08;;
68234;SDS011;55052;52.056;5.296;2023-02-21T12:38:48;38.63;;;14.90;;
68234;SDS011;55052;52.056;5.296;2023-02-21T12:46:55;29.90;;;12.38;;
68234;SDS011;55052;52.056;5.296;2023-02-21T12:52:05;29.50;;;12.18;;
68234;SDS011;55052;52.056;5.296;2023-02-21T12:54:54;26.33;;;11.73;;
68234;SDS011;55052;52.056;5.296;2023-02-21T12:57:45;25.55;;;11.02;;
68234;SDS011;55052;52.056;5.296;2023-02-21T13:00:23;21.33;;;9.93;;
68234;SDS011;55052;52.056;5.296;2023-02-21T13:02:59;22.15;;;9.63;;
68234;SDS011;55052;52.056;5.296;2023-02-21T13:05:38;23.70;;;10.57;;
68234;SDS011;55052;52.056;5.296;2023-02-21T13:08:20;20.08;;;9.13;;
68234;SDS011;55052;52.056;5.296;2023-02-21T13:13:39;22.33;;;9.80;;
68234;SDS011;55052;52.056;5.296;2023-02-21T13:16:07;20.67;;;9.82;;
68234;SDS011;55052;52.056;5.296;2023-02-21T13:18:54;20.52;;;9.50;;
68234;SDS011;55052;52.056;5.296;2023-02-21T13:24:12;20.00;;;9.00;;
68234;SDS011;55052;52.056;5.296;2023-02-21T13:29:58;18.80;;;8.80;;
68234;SDS011;55052;52.056;5.296;2023-02-21T13:32:38;16.50;;;8.50;;
68234;SDS011;55052;52.056;5.296;2023-02-21T13:35:17;19.52;;;9.25;;
68234;SDS011;55052;52.056;5.296;2023-02-21T13:37:47;21.50;;;9.25;;
68234;SDS011;55052;52.056;5.296;2023-02-21T13:40:21;17.08;;;9.40;;
68234;SDS011;55052;52.056;5.296;2023-02-21T13:42:57;17.95;;;9.55;;
68234;SDS011;55052;52.056;5.296;2023-02-21T13:45:31;23.77;;;11.38;;
68234;SDS011;55052;52.056;5.296;2023-02-21T13:48:17;20.77;;;10.57;;
68234;SDS011;55052;52.056;5.296;2023-02-21T13:50:48;20.55;;;10.80;;
68234;SDS011;55052;52.056;5.296;2023-02-21T13:58:37;23.45;;;11.15;;
68234;SDS011;55052;52.056;5.296;2023-02-21T14:01:21;19.17;;;9.90;;
68234;SDS011;55052;52.056;5.296;2023-02-21T14:07:09;21.33;;;10.88;;
68234;SDS011;55052;52.056;5.296;2023-02-21T14:09:37;19.92;;;8.95;;
68234;SDS011;55052;52.056;5.296;2023-02-21T14:12:06;19.95;;;9.95;;
68234;SDS011;55052;52.056;5.296;2023-02-21T14:14:37;18.60;;;8.57;;
68234;SDS011;55052;52.056;5.296;2023-02-21T14:17:07;20.77;;;9.80;;
68234;SDS011;55052;52.056;5.296;2023-02-21T14:22:13;18.40;;;9.52;;
68234;SDS011;55052;52.056;5.296;2023-02-21T14:25:03;17.27;;;8.75;;
68234;SDS011;55052;52.056;5.296;2023-02-21T14:27:40;17.17;;;9.00;;
68234;SDS011;55052;52.056;5.296;2023-02-21T14:32:42;18.88;;;8.23;;
68234;SDS011;55052;52.056;5.296;2023-02-21T14:35:34;17.27;;;8.10;;
68234;SDS011;55052;52.056;5.296;2023-02-21T14:51:33;15.38;;;8.32;;
68234;SDS011;55052;52.056;5.296;2023-02-21T15:02:44;16.15;;;7.75;;
68234;SDS011;55052;52.056;5.296;2023-02-21T15:05:30;18.27;;;8.30;;
68234;SDS011;55052;52.056;5.296;2023-02-21T15:10:44;17.33;;;8.65;;
68234;SDS011;55052;52.056;5.296;2023-02-21T15:18:27;15.65;;;7.50;;
68234;SDS011;55052;52.056;5.296;2023-02-21T15:23:29;17.23;;;8.35;;
68234;SDS011;55052;52.056;5.296;2023-02-21T15:25:58;15.63;;;7.60;;
68234;SDS011;55052;52.056;5.296;2023-02-21T15:28:31;20.15;;;8.07;;
68234;SDS011;55052;52.056;5.296;2023-02-21T15:33:29;14.15;;;7.75;;
68234;SDS011;55052;52.056;5.296;2023-02-21T15:36:22;13.80;;;7.25;;
68234;SDS011;55052;52.056;5.296;2023-02-21T15:38:50;14.65;;;7.78;;
68234;SDS011;55052;52.056;5.296;2023-02-21T15:41:28;15.32;;;8.13;;
68234;SDS011;55052;52.056;5.296;2023-02-21T15:46:37;14.85;;;7.97;;
68234;SDS011;55052;52.056;5.296;2023-02-21T15:49:18;15.88;;;7.93;;
68234;SDS011;55052;52.056;5.296;2023-02-21T15:51:50;14.18;;;7.10;;
68234;SDS011;55052;52.056;5.296;2023-02-21T15:59:37;15.65;;;7.43;;
68234;SDS011;55052;52.056;5.296;2023-02-21T16:02:14;12.48;;;6.82;;
68234;SDS011;55052;52.056;5.296;2023-02-21T16:04:46;12.52;;;7.25;;
68234;SDS011;55052;52.056;5.296;2023-02-21T16:10:06;13.07;;;7.03;;
68234;SDS011;55052;52.056;5.296;2023-02-21T16:12:39;12.70;;;7.40;;
68234;SDS011;55052;52.056;5.296;2023-02-21T16:15:28;13.15;;;6.85;;
68234;SDS011;55052;52.056;5.296;2023-02-21T16:18:04;13.52;;;7.32;;
68234;SDS011;55052;52.056;5.296;2023-02-21T16:20:40;14.98;;;7.57;;
68234;SDS011;55052;52.056;5.296;2023-02-21T16:28:22;11.93;;;6.95;;
68234;SDS011;55052;52.056;5.296;2023-02-21T16:30:49;16.63;;;7.85;;
68234;SDS011;55052;52.056;5.296;2023-02-21T16:33:16;20.50;;;8.45;;
68234;SDS011;55052;52.056;5.296;2023-02-21T16:35:43;14.25;;;7.78;;
68234;SDS011;55052;52.056;5.296;2023-02-21T16:38:15;20.17;;;8.00;;
68234;SDS011;55052;52.056;5.296;2023-02-21T16:40:44;16.30;;;7.60;;
68234;SDS011;55052;52.056;5.296;2023-02-21T16:43:21;15.13;;;7.63;;
68234;SDS011;55052;52.056;5.296;2023-02-21T16:48:21;15.45;;;7.40;;
68234;SDS011;55052;52.056;5.296;2023-02-21T16:50:53;16.35;;;8.23;;
68234;SDS011;55052;52.056;5.296;2023-02-21T16:53:20;14.73;;;7.82;;
68234;SDS011;55052;52.056;5.296;2023-02-21T16:55:48;20.55;;;10.35;;
68234;SDS011;55052;52.056;5.296;2023-02-21T17:00:54;17.38;;;9.15;;
68234;SDS011;55052;52.056;5.296;2023-02-21T17:03:23;19.58;;;9.13;;
68234;SDS011;55052;52.056;5.296;2023-02-21T17:05:50;21.13;;;9.60;;
68234;SDS011;55052;52.056;5.296;2023-02-21T17:08:18;16.23;;;8.77;;
68234;SDS011;55052;52.056;5.296;2023-02-21T17:10:45;18.52;;;8.98;;
68234;SDS011;55052;52.056;5.296;2023-02-21T17:13:12;18.02;;;8.93;;
68234;SDS011;55052;52.056;5.296;2023-02-21T17:15:39;16.92;;;8.98;;
68234;SDS011;55052;52.056;5.296;2023-02-21T17:18:06;16.10;;;8.38;;
68234;SDS011;55052;52.056;5.296;2023-02-21T17:20:33;19.92;;;9.23;;
68234;SDS011;55052;52.056;5.296;2023-02-21T17:22:59;20.58;;;9.52;;
68234;SDS011;55052;52.056;5.296;2023-02-21T17:25:27;23.25;;;9.88;;
68234;SDS011;55052;52.056;5.296;2023-02-21T17:27:55;23.05;;;10.48;;
68234;SDS011;55052;52.056;5.296;2023-02-21T17:30:22;18.58;;;9.63;;
68234;SDS011;55052;52.056;5.296;2023-02-21T17:32:50;20.67;;;10.38;;
68234;SDS011;55052;52.056;5.296;2023-02-21T17:35:17;21.20;;;10.18;;
68234;SDS011;55052;52.056;5.296;2023-02-21T17:37:45;17.50;;;9.05;;
68234;SDS011;55052;52.056;5.296;2023-02-21T17:40:16;20.20;;;10.02;;
68234;SDS011;55052;52.056;5.296;2023-02-21T17:42:44;19.08;;;9.65;;
68234;SDS011;55052;52.056;5.296;2023-02-21T17:45:11;22.55;;;11.13;;
68234;SDS011;55052;52.056;5.296;2023-02-21T17:50:08;21.77;;;9.98;;
68234;SDS011;55052;52.056;5.296;2023-02-21T17:52:35;21.42;;;10.90;;
68234;SDS011;55052;52.056;5.296;2023-02-21T17:55:01;18.60;;;9.77;;
68234;SDS011;55052;52.056;5.296;2023-02-21T17:57:33;23.65;;;11.57;;
68234;SDS011;55052;52.056;5.296;2023-02-21T18:00:04;24.10;;;11.25;;
68234;SDS011;55052;52.056;5.296;2023-02-21T18:02:35;23.80;;;11.13;;
68234;SDS011;55052;52.056;5.296;2023-02-21T18:05:02;21.98;;;11.07;;